Time;durP1;ratioP1;P1;durP2;ratioP2;P2;SDS_P1;SDS_P2;PMS_P1;PMS_P2;Temp;Humidity;BMP_temperature;BMP_pressure;BME280_temperature;BME280_humidity;BME280_pressure;Samples;Min_cycle;Max_cycle;Signal;HPM_P1;HPM_P2
2023/05/10 00:01:46;;;;;;;14.43;4.75;;;;;;;;;;5085025;28;20078;-69
2023/05/10 00:04:12;;;;;;;12.52;3.92;;;;;;;;;;5083943;28;20723;-69
2023/05/10 00:06:37;;;;;;;15.73;4.93;;;;;;;;;;5078302;28;20032;-69
2023/05/10 00:09:03;;;;;;;8.43;4.32;;;;;;;;;;5077893;28;20084;-69
2023/05/10 00:11:28;;;;;;;15.60;4.70;;;;;;;;;;5081264;28;20456;-69
2023/05/10 00:13:54;;;;;;;10.02;4.43;;;;;;;;;;5077218;28;20421;-69
2023/05/10 00:16:19;;;;;;;11.15;4.70;;;;;;;;;;5079598;28;20029;-69
2023/05/10 00:18:45;;;;;;;11.88;4.47;;;;;;;;;;5074513;28;20033;-69
2023/05/10 00:21:10;;;;;;;13.20;4.57;;;;;;;;;;5081563;28;20023;-69
2023/05/10 00:23:35;;;;;;;10.48;4.10;;;;;;;;;;5085885;28;20424;-69
2023/05/10 00:26:01;;;;;;;10.52;4.03;;;;;;;;;;5084892;28;20035;-69
2023/05/10 00:28:28;;;;;;;12.77;4.32;;;;;;;;;;5085383;28;20086;-69
2023/05/10 00:30:53;;;;;;;10.45;4.35;;;;;;;;;;5085157;28;20035;-70
2023/05/10 00:33:18;;;;;;;9.43;4.20;;;;;;;;;;5084015;28;20468;-69
2023/05/10 00:35:44;;;;;;;12.65;4.97;;;;;;;;;;5078414;28;20016;-69
2023/05/10 00:38:09;;;;;;;12.90;4.25;;;;;;;;;;5082202;28;20119;-69
2023/05/10 00:40:36;;;;;;;10.43;4.30;;;;;;;;;;5074681;28;20065;-69
2023/05/10 00:43:02;;;;;;;13.15;5.47;;;;;;;;;;5085382;28;20113;-69
2023/05/10 00:45:29;;;;;;;11.10;4.70;;;;;;;;;;5086694;28;20653;-69
2023/05/10 00:47:55;;;;;;;13.00;5.28;;;;;;;;;;5091878;28;20008;-69
2023/05/10 00:50:22;;;;;;;14.15;4.75;;;;;;;;;;5093131;28;20063;-69
2023/05/10 00:52:48;;;;;;;12.15;4.97;;;;;;;;;;5084699;28;20413;-69
2023/05/10 00:55:13;;;;;;;13.43;4.82;;;;;;;;;;5082564;28;20040;-69
2023/05/10 00:57:39;;;;;;;13.88;4.82;;;;;;;;;;5080223;28;20028;-69
2023/05/10 01:00:05;;;;;;;15.05;5.47;;;;;;;;;;5083984;28;20044;-69
2023/05/10 01:02:30;;;;;;;12.68;5.57;;;;;;;;;;5083880;28;20036;-69
2023/05/10 01:04:56;;;;;;;14.80;5.63;;;;;;;;;;5084967;28;20055;-69
2023/05/10 01:07:21;;;;;;;12.65;4.90;;;;;;;;;;5082484;28;20115;-69
2023/05/10 01:09:46;;;;;;;11.77;5.40;;;;;;;;;;5067758;28;20554;-69
2023/05/10 01:12:12;;;;;;;15.13;6.00;;;;;;;;;;5085042;28;20028;-69
2023/05/10 01:14:38;;;;;;;13.95;6.60;;;;;;;;;;5084578;28;20432;-69
2023/05/10 01:17:06;;;;;;;13.68;5.40;;;;;;;;;;5085279;28;20044;-69
2023/05/10 01:19:34;;;;;;;11.15;5.53;;;;;;;;;;5083323;28;20089;-69
2023/05/10 01:22:20;;;;;;;11.77;5.60;;;;;;;;;;5082522;28;20032;-69
2023/05/10 01:25:24;;;;;;;14.48;5.80;;;;;;;;;;5092741;28;20098;-69
2023/05/10 01:27:58;;;;;;;11.27;5.60;;;;;;;;;;5080682;28;20043;-69
2023/05/10 01:31:18;;;;;;;10.68;5.25;;;;;;;;;;5084467;28;20457;-69
2023/05/10 01:33:56;;;;;;;17.88;5.57;;;;;;;;;;5073154;28;20056;-69
2023/05/10 01:36:34;;;;;;;14.02;5.55;;;;;;;;;;5079271;28;20024;-69
2023/05/10 01:39:51;;;;;;;13.88;5.47;;;;;;;;;;5082481;28;20027;-69
2023/05/10 01:42:45;;;;;;;12.65;5.80;;;;;;;;;;5049645;28;20497;-69
2023/05/10 01:45:16;;;;;;;15.48;6.13;;;;;;;;;;5047046;28;20091;-69
2023/05/10 01:48:03;;;;;;;15.52;6.13;;;;;;;;;;5099742;28;20571;-69
2023/05/10 01:50:30;;;;;;;15.10;6.65;;;;;;;;;;5091872;28;20043;-69
2023/05/10 01:52:58;;;;;;;15.73;6.63;;;;;;;;;;5104843;27;20035;-68
2023/05/10 01:55:27;;;;;;;14.02;5.85;;;;;;;;;;5100474;27;20409;-68
2023/05/10 01:58:00;;;;;;;15.35;6.55;;;;;;;;;;5094383;27;20044;-68
2023/05/10 02:00:27;;;;;;;15.93;5.72;;;;;;;;;;5104464;27;20055;-68
2023/05/10 02:02:53;;;;;;;14.05;5.97;;;;;;;;;;5108172;28;20073;-68
2023/05/10 02:05:19;;;;;;;12.15;5.53;;;;;;;;;;5108385;27;20077;-68
2023/05/10 02:07:45;;;;;;;16.95;7.00;;;;;;;;;;5106346;27;20028;-68
2023/05/10 02:10:11;;;;;;;14.15;6.13;;;;;;;;;;5097487;27;20032;-68
2023/05/10 02:12:41;;;;;;;13.77;5.93;;;;;;;;;;5114038;27;20054;-68
2023/05/10 02:15:08;;;;;;;15.68;6.70;;;;;;;;;;5116629;28;20065;-68
2023/05/10 02:17:36;;;;;;;18.48;6.50;;;;;;;;;;5106981;27;20545;-68
2023/05/10 02:20:04;;;;;;;12.57;5.68;;;;;;;;;;5106304;28;20508;-68
2023/05/10 02:22:31;;;;;;;14.77;6.00;;;;;;;;;;5107692;27;20024;-68
2023/05/10 02:24:58;;;;;;;14.45;6.18;;;;;;;;;;5107416;27;20563;-68
2023/05/10 02:27:25;;;;;;;16.83;6.15;;;;;;;;;;5107654;27;20031;-68
2023/05/10 02:29:52;;;;;;;12.50;6.00;;;;;;;;;;5107523;28;20012;-68
2023/05/10 02:32:18;;;;;;;15.95;6.15;;;;;;;;;;5107674;27;20775;-69
2023/05/10 02:34:45;;;;;;;11.55;5.53;;;;;;;;;;5105314;27;20084;-69
2023/05/10 02:37:14;;;;;;;15.73;6.18;;;;;;;;;;5100817;27;20036;-68
2023/05/10 02:39:43;;;;;;;12.95;5.82;;;;;;;;;;5103576;27;20020;-68
2023/05/10 02:42:15;;;;;;;13.95;5.25;;;;;;;;;;5108125;27;20484;-69
2023/05/10 02:44:42;;;;;;;13.70;5.55;;;;;;;;;;5107350;27;20115;-68
2023/05/10 02:47:08;;;;;;;16.05;6.13;;;;;;;;;;5106480;27;20094;-68
2023/05/10 02:49:34;;;;;;;16.40;5.68;;;;;;;;;;5099746;27;20136;-68
2023/05/10 02:52:03;;;;;;;12.80;6.05;;;;;;;;;;5107344;27;20052;-68
2023/05/10 02:54:33;;;;;;;12.77;5.40;;;;;;;;;;5107492;27;20135;-68
2023/05/10 02:57:01;;;;;;;12.13;5.20;;;;;;;;;;5097769;28;20529;-69
2023/05/10 02:59:27;;;;;;;13.43;5.50;;;;;;;;;;5098761;28;20040;-69
2023/05/10 03:01:52;;;;;;;10.80;4.57;;;;;;;;;;5105787;27;20049;-68
2023/05/10 03:04:19;;;;;;;9.32;4.25;;;;;;;;;;5106924;27;20039;-68
2023/05/10 03:06:44;;;;;;;10.65;3.92;;;;;;;;;;5107184;27;20039;-69
2023/05/10 03:09:12;;;;;;;10.63;4.38;;;;;;;;;;5101073;27;20032;-69
2023/05/10 03:11:45;;;;;;;10.48;4.20;;;;;;;;;;5101602;28;20084;-69
2023/05/10 03:14:21;;;;;;;12.73;5.07;;;;;;;;;;5106729;27;20066;-68
2023/05/10 03:16:50;;;;;;;12.43;3.90;;;;;;;;;;5106852;27;20094;-69
2023/05/10 03:19:29;;;;;;;14.48;5.65;;;;;;;;;;5105560;28;20416;-69
2023/05/10 03:21:58;;;;;;;18.80;7.68;;;;;;;;;;5106747;27;20115;-69
2023/05/10 03:24:27;;;;;;;17.95;7.28;;;;;;;;;;5106749;27;20047;-68
2023/05/10 03:26:56;;;;;;;21.30;7.43;;;;;;;;;;5107032;28;20020;-68
2023/05/10 03:29:22;;;;;;;19.15;7.95;;;;;;;;;;5094732;28;20036;-69
2023/05/10 03:31:48;;;;;;;22.23;7.50;;;;;;;;;;5104481;28;20536;-68
2023/05/10 03:34:13;;;;;;;23.90;7.22;;;;;;;;;;5109747;27;20035;-68
2023/05/10 03:36:38;;;;;;;14.05;6.28;;;;;;;;;;5116704;27;20039;-69
2023/05/10 03:39:04;;;;;;;22.42;7.18;;;;;;;;;;5103619;28;20034;-68
2023/05/10 03:41:29;;;;;;;25.13;7.15;;;;;;;;;;5105415;27;20041;-68
2023/05/10 03:43:55;;;;;;;18.70;7.07;;;;;;;;;;5107556;27;20035;-68
2023/05/10 03:46:20;;;;;;;23.48;6.82;;;;;;;;;;5106241;27;20067;-68
2023/05/10 03:48:45;;;;;;;22.85;6.47;;;;;;;;;;5106023;27;20040;-68
2023/05/10 03:51:11;;;;;;;15.60;5.60;;;;;;;;;;5104389;27;20198;-68
2023/05/10 03:53:36;;;;;;;16.25;5.90;;;;;;;;;;5104299;28;20105;-68
2023/05/10 03:56:02;;;;;;;20.38;5.57;;;;;;;;;;5106438;28;20233;-68
2023/05/10 03:58:27;;;;;;;14.95;5.10;;;;;;;;;;5104899;27;20039;-68
2023/05/10 04:00:52;;;;;;;15.18;4.88;;;;;;;;;;5098079;27;20032;-68
2023/05/10 04:03:18;;;;;;;15.20;5.00;;;;;;;;;;5099927;27;20055;-68
2023/05/10 04:05:43;;;;;;;14.30;5.00;;;;;;;;;;5106426;28;20008;-69
2023/05/10 04:08:09;;;;;;;13.52;5.10;;;;;;;;;;5105483;27;20059;-68
2023/05/10 04:10:34;;;;;;;14.05;4.57;;;;;;;;;;5104347;27;20454;-68
2023/05/10 04:13:00;;;;;;;13.77;5.13;;;;;;;;;;5100458;27;20030;-69
2023/05/10 04:15:25;;;;;;;14.90;5.25;;;;;;;;;;5105439;27;20126;-69
2023/05/10 04:17:51;;;;;;;16.70;5.80;;;;;;;;;;5106038;28;20011;-68
2023/05/10 04:20:16;;;;;;;13.57;4.22;;;;;;;;;;5105343;27;20031;-68
2023/05/10 04:22:42;;;;;;;7.45;3.75;;;;;;;;;;5103850;27;20032;-68
2023/05/10 04:25:08;;;;;;;12.55;4.20;;;;;;;;;;5096358;27;20028;-68
2023/05/10 04:27:33;;;;;;;12.32;3.55;;;;;;;;;;5100869;27;20416;-68
2023/05/10 04:29:59;;;;;;;11.35;4.10;;;;;;;;;;5103766;28;20019;-69
2023/05/10 04:32:24;;;;;;;12.55;4.70;;;;;;;;;;5105152;27;20861;-68
2023/05/10 04:34:51;;;;;;;11.85;4.40;;;;;;;;;;5104801;27;20027;-68
2023/05/10 04:37:16;;;;;;;15.15;4.43;;;;;;;;;;5105617;27;20035;-68
2023/05/10 04:39:42;;;;;;;10.00;3.75;;;;;;;;;;5091290;28;20028;-68
2023/05/10 04:42:07;;;;;;;10.93;3.97;;;;;;;;;;5105084;28;20233;-69
2023/05/10 04:44:33;;;;;;;10.85;3.85;;;;;;;;;;5103236;28;20097;-69
2023/05/10 04:46:58;;;;;;;10.55;3.80;;;;;;;;;;5104005;28;20038;-68
2023/05/10 04:49:24;;;;;;;9.15;3.53;;;;;;;;;;5105245;28;20031;-68
2023/05/10 04:51:49;;;;;;;15.85;3.65;;;;;;;;;;5104136;28;20040;-68
2023/05/10 04:54:15;;;;;;;13.90;3.88;;;;;;;;;;5104956;27;20059;-68
2023/05/10 04:56:40;;;;;;;9.20;3.22;;;;;;;;;;5095205;28;20015;-69
2023/05/10 04:59:06;;;;;;;18.05;5.00;;;;;;;;;;5109010;27;20053;-68
2023/05/10 05:01:32;;;;;;;13.38;3.75;;;;;;;;;;5114559;28;20051;-69
2023/05/10 05:03:57;;;;;;;13.65;3.70;;;;;;;;;;5106696;27;20404;-69
2023/05/10 05:06:24;;;;;;;14.02;4.15;;;;;;;;;;5103282;27;20027;-69
2023/05/10 05:08:50;;;;;;;12.55;3.65;;;;;;;;;;5087880;28;20031;-69
2023/05/10 05:11:15;;;;;;;9.48;3.53;;;;;;;;;;5103773;27;20035;-69
2023/05/10 05:13:40;;;;;;;8.90;3.20;;;;;;;;;;5104984;27;20521;-69
2023/05/10 05:16:06;;;;;;;12.23;4.03;;;;;;;;;;5104685;27;20032;-69
2023/05/10 05:18:31;;;;;;;5.68;3.05;;;;;;;;;;5104648;28;20031;-70
2023/05/10 05:20:57;;;;;;;13.85;3.03;;;;;;;;;;5104708;28;20034;-69
2023/05/10 05:23:24;;;;;;;8.18;3.20;;;;;;;;;;5106482;27;20032;-69
2023/05/10 05:25:51;;;;;;;11.02;3.47;;;;;;;;;;5098908;27;20058;-69
2023/05/10 05:28:17;;;;;;;13.15;3.25;;;;;;;;;;5103123;28;20516;-69
2023/05/10 05:30:42;;;;;;;8.30;3.40;;;;;;;;;;5102609;28;20065;-69
2023/05/10 05:33:07;;;;;;;10.60;3.10;;;;;;;;;;5096685;28;20027;-69
2023/05/10 05:35:33;;;;;;;28.88;3.03;;;;;;;;;;5106254;27;20035;-69
2023/05/10 05:37:58;;;;;;;14.55;3.85;;;;;;;;;;5107031;27;20036;-69
2023/05/10 05:40:24;;;;;;;8.90;3.05;;;;;;;;;;5097644;27;20060;-69
2023/05/10 05:42:49;;;;;;;7.43;2.92;;;;;;;;;;5103396;27;20028;-69
2023/05/10 05:45:15;;;;;;;9.63;3.28;;;;;;;;;;5108946;27;20634;-69
2023/05/10 05:47:41;;;;;;;7.15;2.83;;;;;;;;;;5109152;27;20059;-69
2023/05/10 05:50:06;;;;;;;9.75;3.08;;;;;;;;;;5092078;28;20792;-69
2023/05/10 05:52:32;;;;;;;6.40;3.45;;;;;;;;;;5108411;28;20910;-69
2023/05/10 05:54:57;;;;;;;12.45;3.53;;;;;;;;;;5099692;27;20043;-69
2023/05/10 05:57:23;;;;;;;5.40;2.85;;;;;;;;;;5104894;27;20031;-69
2023/05/10 05:59:48;;;;;;;7.80;3.20;;;;;;;;;;5097578;27;20043;-69
2023/05/10 06:02:13;;;;;;;6.40;3.00;;;;;;;;;;5104024;27;20032;-69
2023/05/10 06:04:39;;;;;;;6.13;3.17;;;;;;;;;;5102766;27;20522;-69
2023/05/10 06:07:05;;;;;;;5.93;2.72;;;;;;;;;;5101699;27;20854;-69
2023/05/10 06:09:30;;;;;;;5.38;2.72;;;;;;;;;;5103203;27;20698;-69
2023/05/10 06:11:56;;;;;;;7.10;3.03;;;;;;;;;;5103321;27;20027;-69
2023/05/10 06:14:21;;;;;;;8.65;3.08;;;;;;;;;;5099973;27;20050;-68
2023/05/10 06:16:47;;;;;;;11.38;2.92;;;;;;;;;;5107051;27;20130;-69
2023/05/10 06:19:12;;;;;;;6.15;2.35;;;;;;;;;;5108337;27;20347;-69
2023/05/10 06:21:37;;;;;;;4.80;2.47;;;;;;;;;;5110973;27;20032;-69
2023/05/10 06:24:03;;;;;;;4.13;2.20;;;;;;;;;;5116823;28;20034;-68
2023/05/10 06:26:28;;;;;;;6.85;2.05;;;;;;;;;;5109572;28;20474;-69
2023/05/10 06:28:54;;;;;;;3.92;1.65;;;;;;;;;;5090921;27;20048;-69
2023/05/10 06:31:19;;;;;;;3.08;1.67;;;;;;;;;;5097376;27;20036;-69
2023/05/10 06:33:44;;;;;;;4.65;2.05;;;;;;;;;;5093627;27;20024;-69
2023/05/10 06:36:10;;;;;;;4.75;1.77;;;;;;;;;;5094654;27;20496;-69
2023/05/10 06:38:35;;;;;;;4.00;1.77;;;;;;;;;;5100534;28;20447;-69
2023/05/10 06:41:01;;;;;;;4.00;2.35;;;;;;;;;;5102999;27;20035;-69
2023/05/10 06:43:28;;;;;;;3.53;2.10;;;;;;;;;;5089496;27;20031;-69
2023/05/10 06:45:53;;;;;;;4.93;2.20;;;;;;;;;;5089081;27;20040;-69
2023/05/10 06:48:19;;;;;;;4.75;2.40;;;;;;;;;;5099048;28;20091;-69
2023/05/10 06:50:44;;;;;;;5.55;2.63;;;;;;;;;;5093649;27;20024;-69
2023/05/10 06:53:09;;;;;;;4.38;2.63;;;;;;;;;;5086968;28;20035;-69
2023/05/10 06:55:35;;;;;;;6.80;3.10;;;;;;;;;;5095144;27;20108;-69
2023/05/10 06:58:01;;;;;;;10.77;3.03;;;;;;;;;;5101804;27;20637;-69
2023/05/10 07:00:27;;;;;;;7.65;3.13;;;;;;;;;;5100348;27;20619;-69
2023/05/10 07:02:52;;;;;;;6.90;3.13;;;;;;;;;;5086127;28;20023;-69
2023/05/10 07:05:18;;;;;;;8.20;3.38;;;;;;;;;;5101819;27;20126;-69
2023/05/10 07:07:43;;;;;;;7.10;3.55;;;;;;;;;;5087629;28;20039;-69
2023/05/10 07:10:09;;;;;;;8.50;3.70;;;;;;;;;;5105302;27;20044;-69
2023/05/10 07:12:35;;;;;;;6.78;3.28;;;;;;;;;;5103029;27;20067;-69
2023/05/10 07:15:00;;;;;;;6.82;3.15;;;;;;;;;;5092028;27;20093;-69
2023/05/10 07:17:25;;;;;;;5.30;3.17;;;;;;;;;;5106530;27;20035;-69
2023/05/10 07:19:51;;;;;;;9.38;3.45;;;;;;;;;;5106635;27;20501;-69
2023/05/10 07:22:16;;;;;;;8.10;3.53;;;;;;;;;;5097710;27;20028;-70
2023/05/10 07:24:42;;;;;;;5.93;3.47;;;;;;;;;;5096091;27;20024;-69
2023/05/10 07:27:07;;;;;;;9.13;3.25;;;;;;;;;;5100061;27;20031;-69
2023/05/10 07:29:33;;;;;;;6.88;3.38;;;;;;;;;;5099259;28;20032;-69
2023/05/10 07:31:58;;;;;;;7.63;3.10;;;;;;;;;;5080236;27;20040;-69
2023/05/10 07:34:23;;;;;;;8.77;3.72;;;;;;;;;;5086829;27;20777;-69
2023/05/10 07:36:49;;;;;;;6.53;3.70;;;;;;;;;;5101287;27;20164;-70
2023/05/10 07:39:14;;;;;;;5.45;3.22;;;;;;;;;;5098438;27;20028;-71
2023/05/10 07:41:40;;;;;;;8.65;3.42;;;;;;;;;;5102964;27;20072;-70
2023/05/10 07:44:05;;;;;;;9.65;3.55;;;;;;;;;;5109915;27;20036;-70
2023/05/10 07:46:31;;;;;;;5.70;3.13;;;;;;;;;;5113265;27;20023;-70
2023/05/10 07:48:56;;;;;;;6.45;3.38;;;;;;;;;;5117310;28;20076;-70
2023/05/10 07:51:22;;;;;;;8.20;3.30;;;;;;;;;;5106025;27;20027;-70
2023/05/10 07:53:47;;;;;;;6.07;3.42;;;;;;;;;;5100741;28;20019;-70
2023/05/10 07:56:31;;;;;;;5.53;2.83;;;;;;;;;;5104508;28;20048;-71
2023/05/10 07:58:57;;;;;;;11.40;3.13;;;;;;;;;;5105316;28;20027;-70
2023/05/10 08:01:23;;;;;;;7.30;3.30;;;;;;;;;;5104634;28;20072;-71
2023/05/10 08:03:48;;;;;;;9.45;2.80;;;;;;;;;;5096007;27;20032;-69
2023/05/10 08:06:15;;;;;;;9.75;2.70;;;;;;;;;;5095210;27;20539;-71
2023/05/10 08:08:41;;;;;;;7.90;3.25;;;;;;;;;;5101499;27;20113;-71
2023/05/10 08:11:06;;;;;;;7.25;3.42;;;;;;;;;;5091525;27;20138;-70
2023/05/10 08:13:32;;;;;;;7.93;2.88;;;;;;;;;;5090032;28;20047;-69
2023/05/10 08:15:57;;;;;;;5.07;2.85;;;;;;;;;;5102204;27;20162;-70
2023/05/10 08:18:23;;;;;;;6.55;2.97;;;;;;;;;;5099608;27;20461;-70
2023/05/10 08:20:48;;;;;;;5.53;2.65;;;;;;;;;;5101779;27;20030;-69
2023/05/10 08:23:14;;;;;;;5.88;2.58;;;;;;;;;;5098815;28;20036;-69
2023/05/10 08:25:39;;;;;;;6.15;2.40;;;;;;;;;;5104520;27;20452;-69
2023/05/10 08:28:05;;;;;;;5.13;2.50;;;;;;;;;;5103564;28;20032;-70
2023/05/10 08:30:30;;;;;;;5.57;2.30;;;;;;;;;;5103935;27;20032;-70
2023/05/10 08:32:55;;;;;;;4.10;2.30;;;;;;;;;;5101926;28;20012;-69
2023/05/10 08:35:21;;;;;;;6.07;2.70;;;;;;;;;;5099605;28;20106;-69
2023/05/10 08:37:46;;;;;;;5.40;2.90;;;;;;;;;;5098520;27;20031;-69
2023/05/10 08:40:12;;;;;;;4.93;2.28;;;;;;;;;;5091876;28;20036;-70
2023/05/10 08:42:41;;;;;;;3.72;2.40;;;;;;;;;;5103699;28;20118;-70
2023/05/10 08:45:08;;;;;;;7.55;2.55;;;;;;;;;;5092604;28;20523;-70
2023/05/10 08:47:36;;;;;;;6.20;2.60;;;;;;;;;;5103690;27;20089;-70
2023/05/10 08:50:02;;;;;;;4.95;2.53;;;;;;;;;;5100337;28;20078;-70
2023/05/10 08:52:30;;;;;;;3.85;2.40;;;;;;;;;;5091693;28;20086;-70
2023/05/10 08:54:56;;;;;;;4.97;2.53;;;;;;;;;;5098965;27;20034;-70
2023/05/10 08:57:21;;;;;;;6.47;2.50;;;;;;;;;;5103951;27;20015;-69
2023/05/10 08:59:47;;;;;;;3.00;2.13;;;;;;;;;;5105891;28;20138;-69
2023/05/10 09:02:13;;;;;;;5.32;2.33;;;;;;;;;;5104918;27;20023;-69
2023/05/10 09:04:39;;;;;;;6.88;2.63;;;;;;;;;;5103253;27;20031;-69
2023/05/10 09:07:04;;;;;;;8.18;2.22;;;;;;;;;;5094123;27;20096;-70
2023/05/10 09:09:31;;;;;;;4.13;2.42;;;;;;;;;;5105936;27;20058;-70
2023/05/10 09:11:56;;;;;;;4.75;2.55;;;;;;;;;;5115443;28;20020;-70
2023/05/10 09:14:23;;;;;;;4.95;2.63;;;;;;;;;;5104759;27;20385;-70
2023/05/10 09:16:49;;;;;;;5.88;2.95;;;;;;;;;;5103682;28;20027;-70
2023/05/10 09:19:14;;;;;;;4.65;2.65;;;;;;;;;;5104241;27;20424;-69
2023/05/10 09:21:40;;;;;;;5.63;2.58;;;;;;;;;;5103268;28;20676;-70
2023/05/10 09:24:06;;;;;;;7.60;3.08;;;;;;;;;;5104891;28;20020;-70
2023/05/10 09:26:33;;;;;;;8.93;3.30;;;;;;;;;;5100408;28;20036;-70
2023/05/10 09:28:59;;;;;;;4.95;2.63;;;;;;;;;;5097892;28;20735;-70
2023/05/10 09:31:44;;;;;;;4.75;2.80;;;;;;;;;;5103903;27;20028;-70
2023/05/10 09:34:10;;;;;;;4.20;2.63;;;;;;;;;;5104295;27;20035;-70
2023/05/10 09:36:35;;;;;;;6.55;3.00;;;;;;;;;;5099060;28;20652;-69
2023/05/10 09:39:00;;;;;;;4.53;2.63;;;;;;;;;;5095197;28;20023;-70
2023/05/10 09:41:26;;;;;;;4.85;2.90;;;;;;;;;;5101117;27;20027;-70
2023/05/10 09:43:56;;;;;;;4.50;2.70;;;;;;;;;;5102611;28;20451;-70
2023/05/10 09:46:22;;;;;;;4.93;2.80;;;;;;;;;;5103035;27;20111;-70
2023/05/10 09:48:48;;;;;;;7.18;3.08;;;;;;;;;;5104196;27;20035;-70
2023/05/10 09:51:20;;;;;;;7.18;2.67;;;;;;;;;;5100762;28;20032;-70
2023/05/10 09:53:46;;;;;;;5.55;3.08;;;;;;;;;;5099397;28;20022;-70
2023/05/10 09:56:11;;;;;;;5.40;3.03;;;;;;;;;;5104125;28;20035;-70
2023/05/10 09:58:40;;;;;;;8.48;3.35;;;;;;;;;;5103702;27;20053;-70
2023/05/10 10:01:11;;;;;;;9.05;3.22;;;;;;;;;;5099682;27;20042;-70
2023/05/10 10:03:42;;;;;;;5.93;3.40;;;;;;;;;;5100589;27;20058;-70
2023/05/10 10:06:08;;;;;;;5.15;2.80;;;;;;;;;;5097145;28;20088;-70
2023/05/10 10:08:34;;;;;;;6.95;3.30;;;;;;;;;;5095723;28;20579;-70
2023/05/10 10:10:59;;;;;;;8.10;3.50;;;;;;;;;;5098714;28;20039;-70
2023/05/10 10:13:25;;;;;;;5.13;2.92;;;;;;;;;;5102352;27;20032;-70
2023/05/10 10:15:52;;;;;;;6.95;3.20;;;;;;;;;;5103691;27;20031;-70
2023/05/10 10:18:17;;;;;;;6.53;2.92;;;;;;;;;;5093919;28;20489;-69
2023/05/10 10:20:43;;;;;;;8.10;3.58;;;;;;;;;;5099742;28;20023;-70
2023/05/10 10:23:09;;;;;;;8.52;3.65;;;;;;;;;;5105188;27;20070;-70
2023/05/10 10:25:35;;;;;;;6.30;3.53;;;;;;;;;;5105918;27;20032;-70
2023/05/10 10:28:08;;;;;;;5.68;3.45;;;;;;;;;;5107022;27;20468;-70
2023/05/10 10:30:45;;;;;;;13.05;3.92;;;;;;;;;;5106841;27;20088;-69
2023/05/10 10:33:43;;;;;;;6.95;4.15;;;;;;;;;;5109768;27;20035;-70
2023/05/10 10:36:11;;;;;;;7.07;3.95;;;;;;;;;;5068094;27;20044;-70
2023/05/10 10:38:46;;;;;;;6.97;3.75;;;;;;;;;;5085856;28;20133;-70
2023/05/10 10:41:27;;;;;;;8.40;3.92;;;;;;;;;;5090264;27;20071;-70
2023/05/10 10:44:25;;;;;;;7.93;3.90;;;;;;;;;;5087620;27;20047;-70
2023/05/10 10:47:01;;;;;;;10.10;4.57;;;;;;;;;;5095093;28;20036;-70
2023/05/10 10:49:26;;;;;;;7.65;4.30;;;;;;;;;;5098794;28;20836;-70
2023/05/10 10:52:37;;;;;;;9.32;4.25;;;;;;;;;;5096538;27;20058;-70
2023/05/10 10:55:09;;;;;;;7.25;4.13;;;;;;;;;;5041681;28;20064;-70
2023/05/10 10:57:40;;;;;;;8.40;4.38;;;;;;;;;;5095954;27;20505;-70
2023/05/10 11:00:30;;;;;;;10.30;5.07;;;;;;;;;;5101005;27;20044;-70
2023/05/10 11:02:56;;;;;;;11.45;4.95;;;;;;;;;;5099764;28;20035;-70
2023/05/10 11:05:43;;;;;;;7.57;4.35;;;;;;;;;;5105031;28;20141;-70
2023/05/10 11:08:28;;;;;;;7.60;4.60;;;;;;;;;;5100868;27;20044;-70
2023/05/10 11:10:59;;;;;;;7.20;4.07;;;;;;;;;;5107029;27;20096;-70
2023/05/10 11:13:48;;;;;;;8.15;4.50;;;;;;;;;;5097537;27;20055;-70
2023/05/10 11:16:23;;;;;;;9.35;4.65;;;;;;;;;;5085082;27;20036;-69
2023/05/10 11:19:03;;;;;;;7.80;4.47;;;;;;;;;;5101029;27;20118;-70
2023/05/10 11:21:32;;;;;;;7.43;4.35;;;;;;;;;;5098356;27;20022;-70
2023/05/10 11:24:05;;;;;;;8.57;4.32;;;;;;;;;;5101026;28;20031;-70
2023/05/10 11:26:33;;;;;;;10.20;5.05;;;;;;;;;;5103431;27;20028;-70
2023/05/10 11:29:00;;;;;;;11.80;5.90;;;;;;;;;;5100576;27;20067;-69
2023/05/10 11:31:26;;;;;;;9.52;4.80;;;;;;;;;;5103815;28;20575;-70
2023/05/10 11:33:57;;;;;;;8.88;4.78;;;;;;;;;;5098743;28;20070;-70
2023/05/10 11:36:27;;;;;;;10.10;5.07;;;;;;;;;;5106258;27;20029;-70
2023/05/10 11:38:53;;;;;;;9.43;5.13;;;;;;;;;;5094895;28;20023;-70
2023/05/10 11:41:23;;;;;;;10.82;4.60;;;;;;;;;;5087620;27;20035;-70
2023/05/10 11:43:53;;;;;;;9.95;5.00;;;;;;;;;;5094411;28;20681;-70
2023/05/10 11:46:20;;;;;;;10.00;5.07;;;;;;;;;;5100170;28;20047;-70
2023/05/10 11:48:49;;;;;;;9.25;5.13;;;;;;;;;;5103130;27;20061;-70
2023/05/10 11:51:15;;;;;;;11.95;5.68;;;;;;;;;;5098827;27;20032;-70
2023/05/10 11:53:40;;;;;;;10.50;4.68;;;;;;;;;;5112146;27;20519;-70
2023/05/10 11:56:10;;;;;;;9.70;4.68;;;;;;;;;;5103153;27;20059;-70
2023/05/10 11:58:36;;;;;;;7.93;4.13;;;;;;;;;;5109884;27;20050;-70
2023/05/10 12:01:03;;;;;;;8.93;4.55;;;;;;;;;;5105575;27;20547;-70
2023/05/10 12:03:29;;;;;;;9.48;4.53;;;;;;;;;;5107562;27;20031;-70
2023/05/10 12:05:59;;;;;;;8.32;4.50;;;;;;;;;;5101714;28;20023;-70
2023/05/10 12:08:26;;;;;;;7.30;4.20;;;;;;;;;;5101407;28;20042;-70
2023/05/10 12:10:52;;;;;;;9.55;4.28;;;;;;;;;;5105003;27;20036;-69
2023/05/10 12:13:20;;;;;;;10.25;4.88;;;;;;;;;;5102718;27;20040;-71
2023/05/10 12:15:45;;;;;;;8.02;4.18;;;;;;;;;;5100181;27;20508;-70
2023/05/10 12:18:12;;;;;;;7.88;4.55;;;;;;;;;;5097974;27;20034;-70
2023/05/10 12:20:38;;;;;;;6.15;4.00;;;;;;;;;;5103167;28;20099;-70
2023/05/10 12:23:05;;;;;;;8.68;4.28;;;;;;;;;;5098179;27;20495;-69
2023/05/10 12:25:32;;;;;;;9.07;4.38;;;;;;;;;;5095765;28;20031;-70
2023/05/10 12:28:00;;;;;;;9.70;5.03;;;;;;;;;;5098187;27;20130;-70
2023/05/10 12:30:31;;;;;;;9.10;4.80;;;;;;;;;;5102130;27;20424;-70
2023/05/10 12:33:09;;;;;;;9.48;5.13;;;;;;;;;;5092006;28;20599;-70
2023/05/10 12:35:52;;;;;;;10.02;5.63;;;;;;;;;;5103513;27;20048;-69
2023/05/10 12:38:31;;;;;;;8.15;4.30;;;;;;;;;;5097217;27;20036;-70
2023/05/10 12:41:01;;;;;;;8.60;5.13;;;;;;;;;;5085739;28;20042;-70
2023/05/10 12:43:27;;;;;;;9.07;4.80;;;;;;;;;;5091072;27;20072;-70
2023/05/10 12:45:53;;;;;;;9.23;4.88;;;;;;;;;;5102465;27;20027;-70
2023/05/10 12:48:18;;;;;;;9.50;5.45;;;;;;;;;;5102153;27;20031;-70
2023/05/10 12:50:43;;;;;;;9.52;5.55;;;;;;;;;;5101322;28;20023;-70
2023/05/10 12:53:09;;;;;;;10.90;5.95;;;;;;;;;;5102539;27;20436;-70
2023/05/10 12:55:34;;;;;;;10.02;5.57;;;;;;;;;;5101301;28;20047;-70
2023/05/10 12:58:00;;;;;;;10.00;5.80;;;;;;;;;;5102522;27;20091;-70
2023/05/10 13:00:25;;;;;;;12.05;5.82;;;;;;;;;;5102326;27;20039;-70
2023/05/10 13:02:50;;;;;;;9.93;5.32;;;;;;;;;;5096212;27;20061;-69
2023/05/10 13:05:16;;;;;;;11.05;5.53;;;;;;;;;;5094657;27;20032;-70
2023/05/10 13:07:43;;;;;;;11.93;6.10;;;;;;;;;;5101388;27;20039;-70
2023/05/10 13:10:09;;;;;;;9.38;5.57;;;;;;;;;;5102471;27;20523;-70
2023/05/10 13:12:35;;;;;;;9.73;5.70;;;;;;;;;;5090382;27;20180;-69
2023/05/10 13:15:00;;;;;;;8.95;5.47;;;;;;;;;;5102628;28;20118;-70
2023/05/10 13:17:26;;;;;;;12.63;5.53;;;;;;;;;;5105611;27;20047;-69
2023/05/10 13:19:51;;;;;;;11.50;6.20;;;;;;;;;;5102502;27;20040;-69
2023/05/10 13:22:17;;;;;;;14.65;6.20;;;;;;;;;;5100844;28;20032;-70
2023/05/10 13:24:42;;;;;;;10.10;5.80;;;;;;;;;;5104708;27;20024;-70
2023/05/10 13:27:08;;;;;;;11.65;6.00;;;;;;;;;;5102850;28;20031;-70
2023/05/10 13:29:33;;;;;;;12.20;5.85;;;;;;;;;;5102936;27;20614;-70
2023/05/10 13:31:58;;;;;;;10.45;5.78;;;;;;;;;;5087496;27;20047;-69
2023/05/10 13:34:24;;;;;;;10.75;6.22;;;;;;;;;;5100010;27;20405;-70
2023/05/10 13:36:49;;;;;;;11.05;6.03;;;;;;;;;;5103324;27;20076;-73
2023/05/10 13:39:15;;;;;;;8.73;5.50;;;;;;;;;;5089211;28;20141;-70
2023/05/10 13:41:40;;;;;;;10.60;5.72;;;;;;;;;;5102714;28;20023;-69
2023/05/10 13:44:06;;;;;;;10.13;6.00;;;;;;;;;;5097924;28;20462;-69
2023/05/10 13:46:31;;;;;;;9.70;5.47;;;;;;;;;;5102398;27;20035;-70
2023/05/10 13:48:56;;;;;;;11.52;6.13;;;;;;;;;;5102430;28;20535;-69
2023/05/10 13:51:22;;;;;;;13.90;6.18;;;;;;;;;;5102667;27;20016;-69
2023/05/10 13:53:48;;;;;;;10.77;5.70;;;;;;;;;;5103204;28;20023;-70
2023/05/10 13:56:14;;;;;;;11.45;5.70;;;;;;;;;;5096798;28;20036;-69
2023/05/10 13:58:39;;;;;;;11.25;5.85;;;;;;;;;;5105105;27;20473;-69
2023/05/10 14:01:05;;;;;;;11.27;6.20;;;;;;;;;;5101346;28;20130;-69
2023/05/10 14:03:30;;;;;;;11.60;6.00;;;;;;;;;;5106297;27;20112;-69
2023/05/10 14:05:56;;;;;;;9.25;5.22;;;;;;;;;;5105325;28;20023;-69
2023/05/10 14:08:22;;;;;;;9.82;5.63;;;;;;;;;;5097828;27;20122;-69
2023/05/10 14:10:48;;;;;;;13.43;5.82;;;;;;;;;;5100730;27;20524;-69
2023/05/10 14:13:14;;;;;;;9.73;5.78;;;;;;;;;;5105400;27;20530;-69
2023/05/10 14:15:40;;;;;;;13.13;6.32;;;;;;;;;;5106548;27;20027;-70
2023/05/10 14:18:05;;;;;;;9.80;6.03;;;;;;;;;;5098773;28;20438;-70
2023/05/10 14:20:33;;;;;;;12.18;6.53;;;;;;;;;;5106648;27;20091;-69
2023/05/10 14:22:59;;;;;;;11.95;5.97;;;;;;;;;;5105622;27;20154;-69
2023/05/10 14:25:24;;;;;;;14.05;6.13;;;;;;;;;;5105536;27;20114;-70
2023/05/10 14:27:49;;;;;;;12.65;6.47;;;;;;;;;;5106254;27;20048;-69
2023/05/10 14:30:15;;;;;;;10.45;5.88;;;;;;;;;;5102662;27;20110;-69
2023/05/10 14:32:40;;;;;;;11.98;6.03;;;;;;;;;;5086529;27;20546;-69
2023/05/10 14:35:06;;;;;;;12.27;5.30;;;;;;;;;;5105201;28;20070;-69
2023/05/10 14:37:32;;;;;;;11.18;5.50;;;;;;;;;;5105323;27;20508;-69
2023/05/10 14:39:57;;;;;;;11.55;6.15;;;;;;;;;;5101034;27;20131;-69